Mackinaw City, MI

3:15 PM EST on December 20, 2014 (GMT -0500)
Harbor Springs | Change Station
CLOSE
Current Station
Airport
Location: Harbor Springs,
Elevation: 686 ft
Nearby Weather Stations

Elev 686 ft 45.43 °N, 84.91 °W | Updated 41 minutes ago

Partly Cloudy
Partly Cloudy
26 °F
Feels Like 18 °F
N
7
Wind Variable Wind from ENE

Today
High -- | Low -- °F
--% Chance of Precip.
Yesterday
High -- | Low -- °F
Precip. -- in
8:16 AM 4:56 PM
Waning Crescent, 2% visible
Pressure 30.24 in
Visibility 10.0 miles
Clouds Overcast 2600 ft
Windchill 18 °F
Dew Point 21 °F
Humidity 81%
Rainfall 0.00 in
Snow Depth Not available.
UV 0 out of 12
Pollen .10 out of 12
Air Quality Not available.
Flu Activity Not available.
METAR KMGN 201934Z AUTO 07006KT 10SM OVC026 M03/M06 A3024 RMK AO2 T10331062

More Conditions Fewer Conditions

Pressure 30.24 in
Visibility 10.0 miles
Clouds Overcast 2600 ft
Windchill 18 °F
Dew Point 21 °F
Humidity 81%
Rainfall 0.00 in
Snow Depth Not available.
UV 0 out of 12
Pollen .10 out of 12
Air Quality Not available.
Flu Activity Not available.
METAR KMGN 201934Z AUTO 07006KT 10SM OVC026 M03/M06 A3024 RMK AO2 T10331062

More Conditions Fewer Conditions

Nowcast | as of 3:00 PM EST on December 20, 2014

At 4 PM...cloudy. Temperature 31. Light winds. At 6 PM...cloudy. Temperature 29. Light winds. At 8 PM...cloudy. Temperature 27. Light winds. At 10 PM...cloudy. Temperature 26. Light winds.

×

10-Day Weather Forecast

Almanac

Astronomy

Dec. 20, 2014 Rise Set
Actual Time
Civil Twilight
Nautical Twilight
Astronomical Twilight
Moon
Length of Visible Light
Length of Day
Tomorrow will be .
, % of the Moon is Illuminated

Today's Extremes

State Highs State Lows

Community

WunderPhotos

Upload Photos

1,779,268 photos uploaded!

WunderBlogs® & News

Nearby

Air Quality

  Air Quality AQ Index Pollutant
Not available.

Snow Depth

Station Depth Elevation

Earthquake Activity

City Distance Mag. Time & Date
Minimum magnitude displayed is 2.5.

Coastal Water Temperatures

Place Temperature

Nearby Weather Stations